Mansfield Hollow, Connecticut
Current Conditions -  °F | °C
As of 4:52 PM on Friday 31 Oct 2014 (Local Time) from KIJD Reporting Station
Overcast Overcast  
Wind Chill: 53°   Ceiling: 4000
Heat Index: 53°   Visibility: 10mi
Dew Point: 39°   Wind: 7mph
Humidity: 59%   Direction: 30°NNE
Pressure: 29.94"   Gusts: NA
Location:  41.7742°N, 72.196°W
Report Text: KIJD 312052Z AUTO 03006KT 10SM OVC040 12/04 A2994 RMK AO2 SLP138 T01170039 56007
Loading
Personal Weather Stations






























Interactive Weather Map
Tropical Storm Tracking
New forecast layout! Learn more

10-Day Weather Forecast

Advertisements
Track Severe Weather on mobile